Aiwamaru — JD2602 — position and weather

sailwx.info

Track history (hours):
 
Tides and Currents Weather Stations Pressure Air Temp Water Temp Dewpoint Dewpoint Depression Visibility Wind Speed Wind Dir Waves Ship Positions

Aiwamaru

Last reported at 2014-Aug-12 13:14 UTC. Time now 2014-Aug-22 09:51 UTC.
Position N 35°17' E 140°31'.
Warning: this ship's position is 9 days out of date.

Length 64 m; draft 4.8 m.

Type: Tanker. MMSI: 431000508.

Date/timePositionNaut miles runAvg speedWind from/ knotsBaromVisibWave heightAir tempDewpointWater temp
2014-Aug-12 13:14N 35°17' E 140°31'2414.2
2014-Aug-12 11:33N 34°59' E 140°11'  
2014-Aug-05 10:23N 35°04' E 139°37'8 9.7
2014-Aug-05 09:33N 35°09' E 139°45'1010.0
2014-Aug-05 08:33N 35°19' E 139°43'1010.3
2014-Aug-05 07:34N 35°29' E 139°42'9 9.4
2014-Aug-05 06:33N 35°32' E 139°53'6 6.3
2014-Aug-05 05:33N 35°37' E 139°58'1 1.0
2014-Aug-05 04:33N 35°38' E 139°59'1 0.8
2014-Aug-05 03:33N 35°37' E 139°58'3 3.0
2014-Aug-05 02:33N 35°35' E 139°55'0 0.0
2014-Aug-05 01:34N 35°35' E 139°55'0 0.0
2014-Aug-05 00:33N 35°35' E 139°55'0 0.0
2014-Aug-04 23:33N 35°35' E 139°55'0 0.0
2014-Aug-04 22:33N 35°35' E 139°55'0 0.0
2014-Aug-04 21:33N 35°35' E 139°55'0 0.0
2014-Aug-04 20:32N 35°35' E 139°55'0 0.0
2014-Aug-04 19:33N 35°35' E 139°55'0 0.0
2014-Aug-04 18:34N 35°35' E 139°55'0 0.0
2014-Aug-04 17:33N 35°35' E 139°55'0 0.0
2014-Aug-04 16:33N 35°35' E 139°55'0 0.0
2014-Aug-04 15:33N 35°35' E 139°55'0 0.0
2014-Aug-04 14:34N 35°35' E 139°55'0 0.0
2014-Aug-04 13:33N 35°35' E 139°55'0 0.0
2014-Aug-04 12:33N 35°35' E 139°55'0 0.0
2014-Aug-04 11:33N 35°35' E 139°55'0 0.0
2014-Aug-04 10:33N 35°35' E 139°55'6 5.8
2014-Aug-04 09:33N 35°30' E 139°53'1212.1
2014-Aug-04 08:33N 35°20' E 139°44'1211.6
2014-Aug-04 07:33N 35°08' E 139°46'1111.3
2014-Aug-04 06:33N 34°59' E 139°38'236 9.3
2014-Aug-03 05:21N 34°05' E 134°60'2210.4
2014-Aug-03 03:13N 34°28' E 135°01'710.6
2014-Aug-03 02:33N 34°34' E 135°03'  
Track history (hours):
 
Tides and Currents Weather Stations Pressure Air Temp Water Temp Dewpoint Dewpoint Depression Visibility Wind Speed Wind Dir Waves Ship Positions

Aiwamaru

Last reported at 2014-Aug-12 13:14 UTC. Time now 2014-Aug-22 09:51 UTC.
Position N 35°17' E 140°31'.
Warning: this ship's position is 9 days out of date.

Length 64 m; draft 4.8 m.

Type: Tanker. MMSI: 431000508.

Date/timePositionNaut miles runAvg speedWind from/ knotsBaromVisibWave heightAir tempDewpointWater temp
2014-Aug-12 13:14N 35°17' E 140°31'2414.2
2014-Aug-12 11:33N 34°59' E 140°11'  
2014-Aug-05 10:23N 35°04' E 139°37'8 9.7
2014-Aug-05 09:33N 35°09' E 139°45'1010.0
2014-Aug-05 08:33N 35°19' E 139°43'1010.3
2014-Aug-05 07:34N 35°29' E 139°42'9 9.4
2014-Aug-05 06:33N 35°32' E 139°53'6 6.3
2014-Aug-05 05:33N 35°37' E 139°58'1 1.0
2014-Aug-05 04:33N 35°38' E 139°59'1 0.8
2014-Aug-05 03:33N 35°37' E 139°58'3 3.0
2014-Aug-05 02:33N 35°35' E 139°55'0 0.0
2014-Aug-05 01:34N 35°35' E 139°55'0 0.0
2014-Aug-05 00:33N 35°35' E 139°55'0 0.0
2014-Aug-04 23:33N 35°35' E 139°55'0 0.0
2014-Aug-04 22:33N 35°35' E 139°55'0 0.0
2014-Aug-04 21:33N 35°35' E 139°55'0 0.0
2014-Aug-04 20:32N 35°35' E 139°55'0 0.0
2014-Aug-04 19:33N 35°35' E 139°55'0 0.0
2014-Aug-04 18:34N 35°35' E 139°55'0 0.0
2014-Aug-04 17:33N 35°35' E 139°55'0 0.0
2014-Aug-04 16:33N 35°35' E 139°55'0 0.0
2014-Aug-04 15:33N 35°35' E 139°55'0 0.0
2014-Aug-04 14:34N 35°35' E 139°55'0 0.0
2014-Aug-04 13:33N 35°35' E 139°55'0 0.0
2014-Aug-04 12:33N 35°35' E 139°55'0 0.0
2014-Aug-04 11:33N 35°35' E 139°55'0 0.0
2014-Aug-04 10:33N 35°35' E 139°55'6 5.8
2014-Aug-04 09:33N 35°30' E 139°53'1212.1
2014-Aug-04 08:33N 35°20' E 139°44'1211.6
2014-Aug-04 07:33N 35°08' E 139°46'1111.3
2014-Aug-04 06:33N 34°59' E 139°38'236 9.3
2014-Aug-03 05:21N 34°05' E 134°60'2210.4
2014-Aug-03 03:13N 34°28' E 135°01'710.6
2014-Aug-03 02:33N 34°34' E 135°03'  

Dump ship's entire track history